Time;durP1;ratioP1;P1;durP2;ratioP2;P2;SDS_P1;SDS_P2;PMS_P1;PMS_P2;Temp;Humidity;BMP_temperature;BMP_pressure;BME280_temperature;BME280_humidity;BME280_pressure;Samples;Min_cycle;Max_cycle;Signal;HPM_P1;HPM_P2
2021/12/30 00:01:55;;;;;;;;;;;15.50;99.90;;;;;;6300671;22;19947;-91
2021/12/30 00:04:24;;;;;;;;;;;15.50;99.90;;;;;;6297998;22;19927;-92
2021/12/30 00:06:58;;;;;;;;;;;15.50;99.90;;;;;;6299775;22;19903;-91
2021/12/30 00:09:44;;;;;;;;;;;15.40;99.90;;;;;;6301467;22;19887;-91
2021/12/30 00:12:10;;;;;;;;;;;15.50;99.90;;;;;;6250411;22;19907;-91
2021/12/30 00:14:45;;;;;;;;;;;15.40;99.90;;;;;;6298105;22;19907;-92
2021/12/30 00:17:12;;;;;;;;;;;15.40;99.90;;;;;;6272779;22;19910;-92
2021/12/30 00:19:42;;;;;;;;;;;15.40;99.90;;;;;;6271222;22;19937;-92
2021/12/30 00:22:16;;;;;;;;;;;15.50;99.90;;;;;;6272885;22;19911;-92
2021/12/30 00:24:48;;;;;;;;;;;15.50;99.90;;;;;;6273325;22;19933;-92
2021/12/30 00:27:18;;;;;;;;;;;15.50;99.90;;;;;;6296236;22;19903;-91
2021/12/30 00:29:45;;;;;;;;;;;15.40;99.90;;;;;;6289217;22;19941;-92
2021/12/30 00:32:11;;;;;;;;;;;15.40;99.90;;;;;;6318050;22;19910;-92
2021/12/30 00:34:36;;;;;;;;;;;15.40;99.90;;;;;;6324136;22;19919;-91
2021/12/30 00:37:36;;;;;;;;;;;15.40;99.90;;;;;;6334415;22;19906;-92
2021/12/30 00:40:03;;;;;;;;;;;15.30;99.90;;;;;;6269106;22;20334;-93
2021/12/30 00:42:28;;;;;;;;;;;15.30;99.90;;;;;;6232136;22;19908;-92
2021/12/30 00:45:21;;;;;;;;;;;15.40;99.90;;;;;;6286163;22;19923;-91
2021/12/30 00:47:47;;;;;;;;;;;15.30;99.90;;;;;;6261765;22;19918;-92
2021/12/30 00:50:12;;;;;;;;;;;15.30;99.90;;;;;;6266029;22;19908;-90
2021/12/30 00:52:38;;;;;;;;;;;15.20;99.90;;;;;;6264157;22;19909;-91
2021/12/30 00:55:08;;;;;;;;;;;15.20;99.90;;;;;;6287896;22;20371;-90
2021/12/30 00:57:33;;;;;;;;;;;15.10;99.90;;;;;;6253181;22;19934;-92
2021/12/30 01:00:02;;;;;;;;;;;15.10;99.90;;;;;;6255902;22;19910;-90
2021/12/30 01:02:34;;;;;;;;;;;15.20;99.90;;;;;;6259611;22;19919;-91
2021/12/30 01:04:59;;;;;;;;;;;15.20;99.90;;;;;;6261760;22;20316;-91
2021/12/30 01:07:28;;;;;;;;;;;15.10;99.90;;;;;;6257138;22;19937;-92
2021/12/30 01:09:53;;;;;;;;;;;15.10;99.90;;;;;;6259347;22;19903;-91
2021/12/30 01:12:21;;;;;;;;;;;15.00;99.90;;;;;;6261019;22;19951;-92
2021/12/30 01:14:56;;;;;;;;;;;15.00;99.90;;;;;;6289207;22;19903;-92
2021/12/30 01:20:18;;;;;;;;;;;15.00;99.90;;;;;;6262099;23;19922;-92
2021/12/30 01:22:44;;;;;;;;;;;15.00;99.90;;;;;;6263314;23;19910;-92
2021/12/30 01:25:15;;;;;;;;;;;14.90;99.90;;;;;;6234131;23;20324;-92
2021/12/30 01:27:41;;;;;;;;;;;14.90;99.90;;;;;;6237314;23;19904;-92
2021/12/30 01:30:27;;;;;;;;;;;15.00;99.90;;;;;;6265407;23;19904;-93
2021/12/30 01:32:59;;;;;;;;;;;14.90;99.90;;;;;;6235640;23;19904;-93
2021/12/30 01:35:25;;;;;;;;;;;14.90;99.90;;;;;;6232288;23;20005;-92
2021/12/30 01:38:01;;;;;;;;;;;14.90;99.90;;;;;;6294050;22;20293;-92
2021/12/30 01:40:33;;;;;;;;;;;14.80;99.90;;;;;;6327250;22;19914;-92
2021/12/30 01:43:14;;;;;;;;;;;14.90;99.90;;;;;;6311587;22;19903;-93
2021/12/30 01:45:46;;;;;;;;;;;15.00;99.90;;;;;;6330927;22;19906;-93
2021/12/30 01:48:24;;;;;;;;;;;14.80;99.90;;;;;;6332354;22;19910;-92
2021/12/30 01:50:53;;;;;;;;;;;14.80;99.90;;;;;;6334894;22;19902;-92
2021/12/30 01:53:24;;;;;;;;;;;14.80;99.90;;;;;;6336530;22;20303;-92
2021/12/30 01:55:53;;;;;;;;;;;14.80;99.90;;;;;;6361730;22;19906;-92
2021/12/30 01:58:20;;;;;;;;;;;14.80;99.90;;;;;;6360250;22;19887;-91
2021/12/30 02:00:48;;;;;;;;;;;14.80;99.90;;;;;;6360914;22;19978;-92
2021/12/30 02:03:14;;;;;;;;;;;14.80;99.90;;;;;;6357107;22;19921;-91
2021/12/30 02:05:46;;;;;;;;;;;14.80;99.90;;;;;;6361764;22;19897;-92
2021/12/30 02:08:15;;;;;;;;;;;14.80;99.90;;;;;;6363343;22;19902;-92
2021/12/30 02:10:45;;;;;;;;;;;14.80;99.90;;;;;;6360431;22;19918;-92
2021/12/30 02:13:13;;;;;;;;;;;14.80;99.90;;;;;;6361466;22;19927;-93
2021/12/30 02:15:42;;;;;;;;;;;14.70;99.90;;;;;;6362375;22;19909;-92
2021/12/30 02:18:08;;;;;;;;;;;14.70;99.90;;;;;;6361433;22;19891;-91
2021/12/30 02:20:59;;;;;;;;;;;14.70;99.90;;;;;;6361759;22;19887;-92
2021/12/30 02:23:34;;;;;;;;;;;14.60;99.90;;;;;;6361594;22;19923;-92
2021/12/30 02:26:08;;;;;;;;;;;14.60;99.90;;;;;;6363944;22;19913;-91
2021/12/30 02:28:35;;;;;;;;;;;14.60;99.90;;;;;;6361244;22;19917;-92
2021/12/30 02:31:03;;;;;;;;;;;14.50;99.90;;;;;;6363722;22;19909;-92
2021/12/30 02:33:31;;;;;;;;;;;14.40;99.90;;;;;;6357426;22;19950;-92
2021/12/30 02:36:19;;;;;;;;;;;14.30;99.90;;;;;;6362381;22;19906;-92
2021/12/30 02:39:11;;;;;;;;;;;14.20;99.90;;;;;;6294601;22;19933;-92
2021/12/30 02:41:38;;;;;;;;;;;14.10;99.90;;;;;;6298244;22;19910;-91
2021/12/30 02:44:08;;;;;;;;;;;14.10;99.90;;;;;;6263517;22;19907;-91
2021/12/30 02:46:39;;;;;;;;;;;14.00;99.90;;;;;;6233188;22;19907;-92
2021/12/30 02:49:05;;;;;;;;;;;14.00;99.90;;;;;;6248608;22;19910;-91
2021/12/30 02:51:31;;;;;;;;;;;13.90;99.90;;;;;;6251075;22;19903;-90
2021/12/30 02:53:57;;;;;;;;;;;13.90;99.90;;;;;;6252540;22;19907;-91
2021/12/30 02:56:37;;;;;;;;;;;13.80;99.90;;;;;;6252044;22;19911;-90
2021/12/30 02:59:03;;;;;;;;;;;13.70;99.90;;;;;;6251840;22;19908;-92
2021/12/30 03:01:35;;;;;;;;;;;13.70;99.90;;;;;;6251077;22;19918;-93
2021/12/30 03:04:12;;;;;;;;;;;13.60;99.90;;;;;;6254293;22;19904;-91
2021/12/30 03:06:40;;;;;;;;;;;13.60;99.90;;;;;;6253821;22;20595;-93
2021/12/30 03:09:24;;;;;;;;;;;13.50;99.90;;;;;;6303448;22;19902;-90
2021/12/30 03:12:15;;;;;;;;;;;13.50;99.90;;;;;;6341068;22;19934;-91
2021/12/30 03:15:01;;;;;;;;;;;13.40;99.90;;;;;;6275736;22;20001;-91
2021/12/30 03:17:27;;;;;;;;;;;13.40;99.90;;;;;;6276096;22;20002;-91
2021/12/30 03:19:57;;;;;;;;;;;13.50;99.90;;;;;;6250744;22;19911;-92
2021/12/30 03:22:25;;;;;;;;;;;13.50;99.90;;;;;;6227507;22;19998;-91
2021/12/30 03:24:55;;;;;;;;;;;13.60;99.90;;;;;;6275573;22;20287;-91
2021/12/30 03:27:20;;;;;;;;;;;13.60;99.90;;;;;;6247013;22;20299;-90
2021/12/30 03:29:49;;;;;;;;;;;13.70;99.90;;;;;;6277477;22;19910;-90
2021/12/30 03:32:14;;;;;;;;;;;13.80;99.90;;;;;;6254202;22;19903;-90
2021/12/30 03:34:40;;;;;;;;;;;13.80;99.90;;;;;;6289357;22;19916;-90
2021/12/30 03:37:06;;;;;;;;;;;13.80;99.90;;;;;;6294627;22;19903;-90
2021/12/30 03:39:32;;;;;;;;;;;13.80;99.90;;;;;;6296573;22;19903;-93
2021/12/30 03:41:59;;;;;;;;;;;13.80;99.90;;;;;;6237385;22;19930;-92
2021/12/30 03:44:25;;;;;;;;;;;13.90;99.90;;;;;;6258919;22;19923;-95
2021/12/30 03:46:50;;;;;;;;;;;13.90;99.90;;;;;;6345261;22;20246;-94
2021/12/30 03:49:16;;;;;;;;;;;13.90;99.90;;;;;;6347701;22;19903;-93
2021/12/30 03:51:41;;;;;;;;;;;13.90;99.90;;;;;;6344201;22;19903;-91
2021/12/30 03:54:07;;;;;;;;;;;14.00;99.90;;;;;;6348099;22;19925;-92
2021/12/30 03:56:34;;;;;;;;;;;14.00;99.90;;;;;;6355483;22;19901;-93
2021/12/30 03:59:00;;;;;;;;;;;14.00;99.90;;;;;;6356694;22;19903;-90
2021/12/30 04:01:26;;;;;;;;;;;14.00;99.90;;;;;;6355531;22;19914;-93
2021/12/30 04:03:53;;;;;;;;;;;14.00;99.90;;;;;;6352037;22;19910;-90
2021/12/30 04:06:18;;;;;;;;;;;14.00;99.90;;;;;;6330945;22;19948;-92
2021/12/30 04:08:47;;;;;;;;;;;14.00;99.90;;;;;;6385328;22;19908;-93
2021/12/30 04:11:13;;;;;;;;;;;14.00;99.90;;;;;;6332684;22;19899;-91
2021/12/30 04:13:38;;;;;;;;;;;14.00;99.90;;;;;;6387728;22;19913;-92
2021/12/30 04:16:05;;;;;;;;;;;14.00;99.90;;;;;;6334122;22;19917;-91
2021/12/30 04:18:31;;;;;;;;;;;14.10;99.90;;;;;;6364931;22;19903;-91
2021/12/30 04:20:59;;;;;;;;;;;14.10;99.90;;;;;;6358820;22;19929;-90
2021/12/30 04:23:31;;;;;;;;;;;14.10;99.90;;;;;;6360308;22;19977;-91
2021/12/30 04:25:57;;;;;;;;;;;14.10;99.90;;;;;;6369344;22;19886;-90
2021/12/30 04:28:23;;;;;;;;;;;14.10;99.90;;;;;;6363799;22;19928;-91
2021/12/30 04:30:49;;;;;;;;;;;14.10;99.90;;;;;;6350954;22;19938;-92
2021/12/30 04:33:15;;;;;;;;;;;14.20;99.90;;;;;;6319178;22;19967;-90
2021/12/30 04:35:40;;;;;;;;;;;14.10;99.90;;;;;;6349839;22;19929;-90
2021/12/30 04:38:06;;;;;;;;;;;14.20;99.90;;;;;;6389316;22;20302;-90
2021/12/30 04:40:33;;;;;;;;;;;14.20;99.90;;;;;;6366262;22;19898;-91
2021/12/30 04:43:00;;;;;;;;;;;14.20;99.90;;;;;;6348883;22;19902;-91
2021/12/30 04:45:27;;;;;;;;;;;14.20;99.90;;;;;;6344034;22;19910;-90
2021/12/30 04:47:53;;;;;;;;;;;14.20;99.90;;;;;;6346745;22;19907;-90
2021/12/30 04:50:19;;;;;;;;;;;14.20;99.90;;;;;;6343299;22;19909;-90
2021/12/30 04:52:45;;;;;;;;;;;14.20;99.90;;;;;;6346638;22;19903;-92
2021/12/30 04:55:10;;;;;;;;;;;14.30;99.90;;;;;;6350249;22;20223;-91
2021/12/30 04:57:36;;;;;;;;;;;14.20;99.90;;;;;;6374383;22;19993;-91
2021/12/30 05:00:04;;;;;;;;;;;14.20;99.90;;;;;;6346868;22;19902;-91
2021/12/30 05:02:43;;;;;;;;;;;14.30;99.90;;;;;;6347395;22;19910;-90
2021/12/30 05:05:12;;;;;;;;;;;14.30;99.90;;;;;;6346866;22;20231;-92
2021/12/30 05:07:38;;;;;;;;;;;14.30;99.90;;;;;;6346442;22;19902;-92
2021/12/30 05:10:05;;;;;;;;;;;14.30;99.90;;;;;;6373414;22;19937;-91
2021/12/30 05:12:32;;;;;;;;;;;14.30;99.90;;;;;;6347194;22;19902;-91
2021/12/30 05:15:00;;;;;;;;;;;14.40;99.90;;;;;;6346530;22;19910;-91
2021/12/30 05:17:29;;;;;;;;;;;14.40;99.90;;;;;;6346676;22;19984;-91
2021/12/30 05:20:20;;;;;;;;;;;14.40;99.90;;;;;;6345227;22;20284;-92
2021/12/30 05:22:56;;;;;;;;;;;;;;;;;;;;;
2021/12/30 05:25:34;;;;;;;;;;;14.50;99.90;;;;;;6349108;22;19981;-92
2021/12/30 05:28:24;;;;;;;;;;;14.50;99.90;;;;;;6365054;22;19902;-92
2021/12/30 05:31:27;;;;;;;;;;;;;;;;;;;;;
2021/12/30 05:34:23;;;;;;;;;;;;;;;;;;;;;
2021/12/30 05:40:20;;;;;;;;;;;14.50;99.90;;;;;;6293369;22;19903;-92
2021/12/30 05:45:44;;;;;;;;;;;14.50;99.90;;;;;;6283094;22;19903;-91
2021/12/30 05:48:12;;;;;;;;;;;14.50;99.90;;;;;;6265667;22;19904;-91
2021/12/30 05:50:38;;;;;;;;;;;14.50;99.90;;;;;;6265180;22;19926;-95
2021/12/30 05:53:04;;;;;;;;;;;14.60;99.90;;;;;;6261634;22;19903;-91
2021/12/30 05:56:02;;;;;;;;;;;;;;;;;;;;;
2021/12/30 06:07:31;;;;;;;;;;;14.70;99.90;;;;;;6167710;23;20293;-92
2021/12/30 06:10:16;;;;;;;;;;;14.70;99.90;;;;;;6251176;22;19903;-90
2021/12/30 06:15:48;;;;;;;;;;;14.70;99.90;;;;;;6212790;23;20035;-91
2021/12/30 06:18:38;;;;;;;;;;;;;;;;;;;;;
2021/12/30 06:21:08;;;;;;;;;;;14.70;99.90;;;;;;6308871;22;19942;-91
2021/12/30 06:26:57;;;;;;;;;;;14.70;99.90;;;;;;6171144;23;19910;-91
2021/12/30 06:29:24;;;;;;;;;;;14.60;99.90;;;;;;6246331;23;19908;-92
2021/12/30 06:31:54;;;;;;;;;;;14.60;99.90;;;;;;6247987;23;19908;-91
2021/12/30 06:34:19;;;;;;;;;;;14.60;99.90;;;;;;6308526;22;19911;-92
2021/12/30 06:37:07;;;;;;;;;;;14.60;99.90;;;;;;6250242;23;20351;-92
2021/12/30 06:39:33;;;;;;;;;;;14.60;99.90;;;;;;6246543;23;19904;-91
2021/12/30 06:42:09;;;;;;;;;;;;;;;;;;;;;
2021/12/30 06:44:37;;;;;;;;;;;14.60;99.90;;;;;;6246060;23;19986;-91
2021/12/30 06:47:05;;;;;;;;;;;14.60;99.90;;;;;;6247234;23;19908;-91
2021/12/30 06:49:36;;;;;;;;;;;14.60;99.90;;;;;;6246577;23;19982;-92
2021/12/30 06:52:03;;;;;;;;;;;14.60;99.90;;;;;;6246677;23;20056;-91
2021/12/30 06:54:29;;;;;;;;;;;14.60;99.90;;;;;;6266869;22;20263;-91
2021/12/30 06:56:55;;;;;;;;;;;14.50;99.90;;;;;;6307832;22;20375;-92
2021/12/30 06:59:35;;;;;;;;;;;14.50;99.90;;;;;;6280633;22;19903;-91
2021/12/30 07:02:06;;;;;;;;;;;14.50;99.90;;;;;;6307319;22;20320;-91
2021/12/30 07:04:38;;;;;;;;;;;14.40;99.90;;;;;;6282735;22;20333;-92
2021/12/30 07:07:04;;;;;;;;;;;14.40;99.90;;;;;;6282901;22;19946;-90
2021/12/30 07:09:39;;;;;;;;;;;14.30;99.90;;;;;;6283586;22;19903;-92
2021/12/30 07:12:14;;;;;;;;;;;14.30;99.90;;;;;;6304834;22;20242;-91
2021/12/30 07:14:57;;;;;;;;;;;14.30;99.90;;;;;;6316478;22;19910;-93
2021/12/30 07:17:36;;;;;;;;;;;;;;;;;;;;;
2021/12/30 07:20:28;;;;;;;;;;;14.30;99.90;;;;;;6390515;22;19902;-91
2021/12/30 07:22:59;;;;;;;;;;;14.30;99.90;;;;;;6388861;22;19960;-92
2021/12/30 07:25:36;;;;;;;;;;;14.30;99.90;;;;;;6394374;22;19902;-91
2021/12/30 07:28:15;;;;;;;;;;;14.30;99.90;;;;;;6394133;22;19910;-93
2021/12/30 07:30:46;;;;;;;;;;;14.30;99.90;;;;;;6367162;22;19902;-93
2021/12/30 07:33:20;;;;;;;;;;;14.30;99.90;;;;;;6363515;22;19906;-91
2021/12/30 07:35:50;;;;;;;;;;;14.30;99.90;;;;;;6363951;22;20339;-92
2021/12/30 07:38:34;;;;;;;;;;;14.30;99.90;;;;;;6391733;22;19933;-92
2021/12/30 07:41:08;;;;;;;;;;;14.40;99.90;;;;;;6367955;22;19902;-93
2021/12/30 07:43:59;;;;;;;;;;;14.40;99.90;;;;;;6365658;22;19910;-92
2021/12/30 07:46:50;;;;;;;;;;;14.40;99.90;;;;;;6273415;22;19945;-92
2021/12/30 07:49:18;;;;;;;;;;;14.40;99.90;;;;;;6243749;23;20280;-91
2021/12/30 07:51:48;;;;;;;;;;;14.40;99.90;;;;;;6242779;23;19908;-91
2021/12/30 07:54:14;;;;;;;;;;;14.40;99.90;;;;;;6243293;23;19934;-92
2021/12/30 07:56:44;;;;;;;;;;;14.50;99.90;;;;;;6269189;23;19987;-91
2021/12/30 07:59:17;;;;;;;;;;;14.50;99.90;;;;;;6239458;23;19903;-93
2021/12/30 08:02:10;;;;;;;;;;;;;;;;;;;;;
2021/12/30 08:05:06;;;;;;;;;;;14.40;99.90;;;;;;6265641;23;20526;-94
2021/12/30 08:07:53;;;;;;;;;;;14.40;99.90;;;;;;6241622;23;19959;-91
2021/12/30 08:10:44;;;;;;;;;;;14.50;99.90;;;;;;6225855;23;19926;-93
2021/12/30 08:13:23;;;;;;;;;;;14.40;99.90;;;;;;6240580;23;19908;-93
2021/12/30 08:15:52;;;;;;;;;;;14.40;99.90;;;;;;6236676;23;19911;-92
2021/12/30 08:18:41;;;;;;;;;;;14.50;99.90;;;;;;6232959;23;19904;-92
2021/12/30 08:21:44;;;;;;;;;;;14.50;99.90;;;;;;6291000;22;19904;-91
2021/12/30 08:24:28;;;;;;;;;;;;;;;;;;;;;
2021/12/30 08:27:00;;;;;;;;;;;14.50;99.90;;;;;;6283794;22;19935;-94
2021/12/30 08:29:31;;;;;;;;;;;14.50;99.90;;;;;;6270813;22;19903;-92
2021/12/30 08:32:08;;;;;;;;;;;14.50;99.90;;;;;;6341496;22;19902;-91
2021/12/30 08:34:33;;;;;;;;;;;14.50;99.90;;;;;;6342415;22;19949;-91
2021/12/30 08:40:44;;;;;;;;;;;;;;;;;;;;;
2021/12/30 08:58:52;;;;;;;;;;;14.70;99.90;;;;;;6096146;23;19913;-92
2021/12/30 09:01:18;;;;;;;;;;;14.70;99.90;;;;;;6147375;23;19908;-92
2021/12/30 09:03:46;;;;;;;;;;;14.70;99.90;;;;;;6216297;22;19906;-92
2021/12/30 09:06:30;;;;;;;;;;;14.70;99.90;;;;;;6338547;22;19902;-92
2021/12/30 09:08:56;;;;;;;;;;;14.70;99.90;;;;;;6347679;22;19903;-92
2021/12/30 09:11:21;;;;;;;;;;;14.70;99.90;;;;;;6349810;22;19926;-91
2021/12/30 09:13:47;;;;;;;;;;;14.70;99.90;;;;;;6349387;22;19906;-93
2021/12/30 09:16:13;;;;;;;;;;;14.70;99.90;;;;;;6346611;22;19910;-91
2021/12/30 09:18:40;;;;;;;;;;;14.80;99.90;;;;;;6344105;22;19903;-92
2021/12/30 09:21:10;;;;;;;;;;;14.80;99.90;;;;;;6344048;22;19902;-91
2021/12/30 09:23:48;;;;;;;;;;;14.80;99.90;;;;;;6342898;22;19982;-93
2021/12/30 09:26:14;;;;;;;;;;;14.80;99.90;;;;;;6344164;22;19952;-92
2021/12/30 09:29:00;;;;;;;;;;;14.80;99.90;;;;;;6345382;22;19946;-91
2021/12/30 09:31:36;;;;;;;;;;;14.80;99.90;;;;;;6344574;22;19906;-93
2021/12/30 09:34:01;;;;;;;;;;;14.90;99.90;;;;;;6343978;22;19911;-90
2021/12/30 09:36:28;;;;;;;;;;;14.90;99.90;;;;;;6336326;22;20242;-91
2021/12/30 09:38:56;;;;;;;;;;;14.90;99.90;;;;;;6335522;22;19929;-90
2021/12/30 09:41:22;;;;;;;;;;;15.00;99.90;;;;;;6335811;22;20276;-90
2021/12/30 09:43:49;;;;;;;;;;;15.00;99.90;;;;;;6336324;22;19926;-91
2021/12/30 09:46:18;;;;;;;;;;;15.00;99.90;;;;;;6339270;22;19906;-92
2021/12/30 09:48:46;;;;;;;;;;;15.00;99.90;;;;;;6338426;22;19906;-91
2021/12/30 09:51:25;;;;;;;;;;;15.00;99.90;;;;;;6310846;22;19952;-90
2021/12/30 09:53:58;;;;;;;;;;;15.00;99.90;;;;;;6336704;22;19906;-91
2021/12/30 09:56:33;;;;;;;;;;;15.10;99.90;;;;;;6336660;22;19910;-91
2021/12/30 09:59:01;;;;;;;;;;;15.10;99.90;;;;;;6337756;22;19903;-91
2021/12/30 10:01:27;;;;;;;;;;;15.20;99.90;;;;;;6342090;22;19973;-90
2021/12/30 10:03:56;;;;;;;;;;;15.20;99.90;;;;;;6341815;22;19910;-91
2021/12/30 10:06:30;;;;;;;;;;;15.20;99.90;;;;;;6341556;22;19929;-92
2021/12/30 10:09:09;;;;;;;;;;;15.20;99.90;;;;;;6342512;22;19906;-92
2021/12/30 10:12:05;;;;;;;;;;;;;;;;;;;;;
2021/12/30 10:14:33;;;;;;;;;;;15.30;99.90;;;;;;6369964;22;19953;-91
2021/12/30 10:17:19;;;;;;;;;;;15.30;99.90;;;;;;6341431;22;19902;-91
2021/12/30 10:19:54;;;;;;;;;;;15.30;99.90;;;;;;6342723;22;22122;-91
2021/12/30 10:22:24;;;;;;;;;;;15.40;99.90;;;;;;6341650;22;19906;-91
2021/12/30 10:24:50;;;;;;;;;;;15.40;99.90;;;;;;6342180;22;19902;-90
2021/12/30 10:27:30;;;;;;;;;;;15.50;99.90;;;;;;6342915;22;19907;-93
2021/12/30 10:29:58;;;;;;;;;;;15.50;99.90;;;;;;6342303;22;19902;-92
2021/12/30 10:35:17;;;;;;;;;;;15.60;99.90;;;;;;6369305;22;19985;-92
2021/12/30 10:37:44;;;;;;;;;;;15.60;99.90;;;;;;6342624;22;19908;-91
2021/12/30 10:40:29;;;;;;;;;;;15.70;99.90;;;;;;6343532;22;19938;-91
2021/12/30 10:46:26;;;;;;;;;;;15.70;99.90;;;;;;6214773;23;19926;-93
2021/12/30 10:49:14;;;;;;;;;;;15.70;99.90;;;;;;6213365;23;19958;-94
2021/12/30 10:51:50;;;;;;;;;;;15.80;99.90;;;;;;6190233;23;20256;-92
2021/12/30 10:54:32;;;;;;;;;;;15.80;99.90;;;;;;6192322;23;19916;-92
2021/12/30 10:57:09;;;;;;;;;;;15.70;99.90;;;;;;6242762;22;19907;-93
2021/12/30 10:59:39;;;;;;;;;;;15.80;99.90;;;;;;6355896;22;19902;-92
2021/12/30 11:02:15;;;;;;;;;;;;;;;;;;;;;
2021/12/30 11:04:55;;;;;;;;;;;15.80;99.90;;;;;;6259456;23;19904;-92
2021/12/30 11:07:51;;;;;;;;;;;15.80;99.90;;;;;;6196317;23;19904;-93
2021/12/30 11:10:29;;;;;;;;;;;15.90;99.90;;;;;;6191911;23;19904;-93
2021/12/30 11:13:25;;;;;;;;;;;;;;;;;;;;;
2021/12/30 11:16:30;;;;;;;;;;;15.90;99.90;;;;;;6166821;23;19947;-92
2021/12/30 11:19:02;;;;;;;;;;;15.90;99.90;;;;;;6193985;23;19904;-93
2021/12/30 11:21:39;;;;;;;;;;;15.90;99.90;;;;;;6230145;23;20058;-93
2021/12/30 11:24:26;;;;;;;;;;;;;;;;;;;;;
2021/12/30 11:27:22;;;;;;;;;;;;;;;;;;;;;
2021/12/30 11:33:07;;;;;;;;;;;;;;;;;;;;;
2021/12/30 11:35:38;;;;;;;;;;;16.00;99.90;;;;;;6257681;23;19938;-92
2021/12/30 11:38:09;;;;;;;;;;;16.00;99.90;;;;;;6276730;22;19895;-93
2021/12/30 11:40:39;;;;;;;;;;;16.00;99.90;;;;;;6295989;22;19903;-93
2021/12/30 11:43:31;;;;;;;;;;;16.00;99.90;;;;;;6322660;22;19907;-91
2021/12/30 11:46:22;;;;;;;;;;;16.00;99.90;;;;;;6289815;22;19985;-92
2021/12/30 11:48:56;;;;;;;;;;;16.00;99.90;;;;;;6275259;22;19903;-92
2021/12/30 11:51:39;;;;;;;;;;;15.90;99.90;;;;;;6343217;22;19913;-93
2021/12/30 11:54:23;;;;;;;;;;;15.90;99.90;;;;;;6359121;22;20330;-91
2021/12/30 11:57:09;;;;;;;;;;;15.90;99.90;;;;;;6359767;22;19906;-91
2021/12/30 12:00:16;;;;;;;;;;;16.00;99.90;;;;;;6355463;22;19903;-93
2021/12/30 12:02:49;;;;;;;;;;;16.00;99.90;;;;;;6380031;22;19951;-92
2021/12/30 12:05:37;;;;;;;;;;;16.00;99.90;;;;;;6355184;22;19906;-91
2021/12/30 12:08:08;;;;;;;;;;;16.10;99.90;;;;;;6356768;22;19902;-93
2021/12/30 12:10:45;;;;;;;;;;;16.20;99.90;;;;;;6358752;22;19909;-92
2021/12/30 12:13:37;;;;;;;;;;;16.20;99.90;;;;;;6354288;22;19902;-92
2021/12/30 12:31:58;;;;;;;;;;;16.10;99.90;;;;;;5861599;24;19909;-92
2021/12/30 12:37:28;;;;;;;;;;;16.00;99.90;;;;;;5992765;23;19906;-90
2021/12/30 12:40:12;;;;;;;;;;;16.10;99.90;;;;;;5987328;23;19963;-95
2021/12/30 12:42:53;;;;;;;;;;;16.10;99.90;;;;;;6028015;23;19905;-93
2021/12/30 12:45:38;;;;;;;;;;;16.10;99.90;;;;;;6099205;23;19905;-94
2021/12/30 12:48:34;;;;;;;;;;;;;;;;;;;;;
2021/12/30 12:54:16;;;;;;;;;;;16.10;99.90;;;;;;6214128;23;19939;-93
2021/12/30 12:56:45;;;;;;;;;;;16.20;99.90;;;;;;6328111;22;19930;-91
2021/12/30 13:02:19;;;;;;;;;;;16.20;99.90;;;;;;6288325;22;19922;-91
2021/12/30 13:04:45;;;;;;;;;;;16.30;99.90;;;;;;6339447;22;19913;-91
2021/12/30 13:07:11;;;;;;;;;;;16.30;99.90;;;;;;6366864;22;20373;-92
2021/12/30 13:09:37;;;;;;;;;;;16.30;99.90;;;;;;6340305;22;19902;-90
2021/12/30 13:12:14;;;;;;;;;;;16.30;99.90;;;;;;6338704;22;19924;-93
2021/12/30 13:14:43;;;;;;;;;;;16.40;99.90;;;;;;6341280;22;19917;-90
2021/12/30 13:17:10;;;;;;;;;;;16.40;99.90;;;;;;6340886;22;20314;-91
2021/12/30 13:19:46;;;;;;;;;;;16.40;99.90;;;;;;6336456;22;19928;-93
2021/12/30 13:22:42;;;;;;;;;;;16.50;99.90;;;;;;6339463;22;19906;-93
2021/12/30 13:25:19;;;;;;;;;;;;;;;;;;;;;
2021/12/30 13:27:53;;;;;;;;;;;16.50;99.90;;;;;;6363067;22;19985;-91
2021/12/30 13:36:55;;;;;;;;;;;16.50;99.90;;;;;;6147650;23;19967;-94
2021/12/30 13:39:43;;;;;;;;;;;;;;;;;;;;;
2021/12/30 13:46:09;;;;;;;;;;;;;;;;;;;;;
2021/12/30 14:07:54;;;;;;;;;;;;;;;;;;;;;
2021/12/30 14:14:05;;;;;;;;;;;;;;;;;;;;;
2021/12/30 14:19:52;;;;;;;;;;;;;;;;;;;;;
2021/12/30 14:22:40;;;;;;;;;;;16.60;99.90;;;;;;6334220;22;19982;-93
2021/12/30 14:47:25;;;;;;;;;;;16.50;99.90;;;;;;6010017;23;20025;-92
2021/12/30 15:12:22;;;;;;;;;;;16.30;99.90;;;;;;5974102;24;19914;-91
2021/12/30 15:14:52;;;;;;;;;;;16.30;99.90;;;;;;6023022;23;19914;-92
2021/12/30 15:20:42;;;;;;;;;;;;;;;;;;;;;
2021/12/30 15:23:28;;;;;;;;;;;16.20;99.90;;;;;;6046278;23;20000;-93
2021/12/30 15:26:12;;;;;;;;;;;16.30;99.90;;;;;;6233619;23;19903;-91
2021/12/30 15:28:53;;;;;;;;;;;16.20;99.90;;;;;;6217846;23;19904;-92
2021/12/30 15:31:20;;;;;;;;;;;16.20;99.90;;;;;;6225051;22;19904;-92
2021/12/30 15:33:58;;;;;;;;;;;16.30;99.90;;;;;;6309994;22;19934;-91
2021/12/30 15:36:49;;;;;;;;;;;16.20;99.90;;;;;;6309314;22;19907;-93
2021/12/30 15:42:18;;;;;;;;;;;16.20;99.90;;;;;;6336721;22;20381;-93
2021/12/30 15:44:47;;;;;;;;;;;16.20;99.90;;;;;;6309701;22;19910;-92
2021/12/30 15:47:16;;;;;;;;;;;16.10;99.90;;;;;;6309108;22;19902;-94
2021/12/30 15:49:42;;;;;;;;;;;16.00;99.90;;;;;;6310320;22;20285;-93
2021/12/30 15:52:08;;;;;;;;;;;16.00;99.90;;;;;;6309980;22;19907;-90
2021/12/30 15:54:36;;;;;;;;;;;15.90;99.90;;;;;;6309396;22;19913;-93
2021/12/30 15:57:04;;;;;;;;;;;15.90;99.90;;;;;;6312188;22;19903;-92
2021/12/30 15:59:34;;;;;;;;;;;15.80;99.90;;;;;;6310499;22;19902;-94
2021/12/30 16:02:00;;;;;;;;;;;15.70;99.90;;;;;;6309511;22;19907;-91
2021/12/30 16:04:28;;;;;;;;;;;15.70;99.90;;;;;;6337460;22;20371;-92
2021/12/30 16:07:01;;;;;;;;;;;15.70;99.90;;;;;;6337289;22;19913;-94
2021/12/30 16:09:39;;;;;;;;;;;15.70;99.90;;;;;;6335213;22;19948;-92
2021/12/30 16:12:05;;;;;;;;;;;15.60;99.90;;;;;;6337018;22;19956;-93
2021/12/30 16:14:56;;;;;;;;;;;15.70;99.90;;;;;;6335520;22;19919;-92
2021/12/30 16:17:25;;;;;;;;;;;15.70;99.90;;;;;;6211629;23;19911;-91
2021/12/30 16:19:54;;;;;;;;;;;15.70;99.90;;;;;;6317783;22;19903;-92
2021/12/30 16:26:11;;;;;;;;;;;15.50;99.90;;;;;;6326531;22;20257;-93
2021/12/30 16:28:58;;;;;;;;;;;15.40;99.90;;;;;;6299280;22;19918;-93
2021/12/30 16:31:47;;;;;;;;;;;15.40;99.90;;;;;;6311972;22;19902;-92
2021/12/30 16:40:43;;;;;;;;;;;15.40;99.90;;;;;;6194055;23;19908;-92
2021/12/30 16:43:37;;;;;;;;;;;15.30;99.90;;;;;;6335769;22;19902;-91
2021/12/30 16:46:18;;;;;;;;;;;15.30;99.90;;;;;;6316880;22;19925;-92
2021/12/30 16:48:47;;;;;;;;;;;15.30;99.90;;;;;;6289195;22;19993;-92
2021/12/30 16:51:18;;;;;;;;;;;15.20;99.90;;;;;;6287418;22;19938;-93
2021/12/30 16:53:43;;;;;;;;;;;15.20;99.90;;;;;;6287614;22;19941;-92
2021/12/30 16:56:13;;;;;;;;;;;15.10;99.90;;;;;;6290537;22;19953;-91
2021/12/30 16:59:05;;;;;;;;;;;15.00;99.90;;;;;;6222828;23;19904;-90
2021/12/30 17:01:36;;;;;;;;;;;15.00;99.90;;;;;;6219281;23;20396;-91
2021/12/30 17:04:14;;;;;;;;;;;15.00;99.90;;;;;;6221814;23;19947;-94
2021/12/30 17:07:08;;;;;;;;;;;15.00;99.90;;;;;;6210384;23;19982;-94
2021/12/30 17:09:39;;;;;;;;;;;15.00;99.90;;;;;;6188874;23;19912;-94
2021/12/30 17:12:05;;;;;;;;;;;14.90;99.90;;;;;;6214200;23;19912;-94
2021/12/30 17:14:37;;;;;;;;;;;14.90;99.90;;;;;;6214242;23;19948;-94
2021/12/30 17:17:02;;;;;;;;;;;14.90;99.90;;;;;;6214765;23;19904;-93
2021/12/30 17:19:29;;;;;;;;;;;14.80;99.90;;;;;;6214169;23;19927;-92
2021/12/30 17:21:55;;;;;;;;;;;14.80;99.90;;;;;;6216809;23;20348;-90
2021/12/30 17:24:46;;;;;;;;;;;;;;;;;;;;;
2021/12/30 17:27:44;;;;;;;;;;;14.80;99.90;;;;;;6274825;22;19986;-91
2021/12/30 17:30:45;;;;;;;;;;;;;;;;;;;;;
2021/12/30 17:33:13;;;;;;;;;;;14.60;99.90;;;;;;6327890;22;19998;-90
2021/12/30 17:35:58;;;;;;;;;;;;;;;;;;;;;
2021/12/30 17:44:41;;;;;;;;;;;14.70;99.90;;;;;;6253543;22;20297;-93
2021/12/30 18:05:38;;;;;;;;;;;14.70;99.90;;;;;;6131554;23;19908;-91
2021/12/30 18:08:17;;;;;;;;;;;;;;;;;;;;;
2021/12/30 18:11:04;;;;;;;;;;;14.70;99.90;;;;;;6241797;22;20763;-93
2021/12/30 18:14:07;;;;;;;;;;;14.70;99.90;;;;;;6255602;22;19911;-91
2021/12/30 18:16:36;;;;;;;;;;;14.60;99.90;;;;;;6260317;22;19911;-92
2021/12/30 18:19:42;;;;;;;;;;;14.60;99.90;;;;;;6250839;23;20449;-92
2021/12/30 18:22:11;;;;;;;;;;;14.50;99.90;;;;;;6229474;23;19904;-94
2021/12/30 18:24:50;;;;;;;;;;;;;;;;;;;;;
2021/12/30 18:27:38;;;;;;;;;;;14.50;99.90;;;;;;6253902;23;19936;-91
2021/12/30 18:30:16;;;;;;;;;;;14.40;99.90;;;;;;6225589;23;20049;-93
2021/12/30 18:32:47;;;;;;;;;;;14.40;99.90;;;;;;6228173;23;19947;-94
2021/12/30 18:35:35;;;;;;;;;;;14.40;99.90;;;;;;6228975;23;19934;-92
2021/12/30 18:38:03;;;;;;;;;;;14.40;99.90;;;;;;6228090;23;19934;-94
2021/12/30 18:40:31;;;;;;;;;;;14.30;99.90;;;;;;6222000;23;19962;-93
2021/12/30 18:52:15;;;;;;;;;;;14.20;99.90;;;;;;6044410;23;19913;-94
2021/12/30 18:55:02;;;;;;;;;;;;;;;;;;;;;
2021/12/30 18:58:03;;;;;;;;;;;;;;;;;;;;;
2021/12/30 19:04:07;;;;;;;;;;;14.00;99.90;;;;;;6039928;23;19965;-93